createdAt,value
2018-10-03T00:00:10.329Z,53.20
2018-10-03T00:02:39.213Z,53.30
2018-10-03T00:05:07.825Z,53.20
2018-10-03T00:07:36.434Z,53.40
2018-10-03T00:10:05.584Z,53.20
2018-10-03T00:12:34.193Z,53.70
2018-10-03T00:15:02.895Z,53.40
2018-10-03T00:17:31.618Z,53.60
2018-10-03T00:20:00.265Z,53.60
2018-10-03T00:22:28.869Z,53.50
2018-10-03T00:24:57.460Z,53.20
2018-10-03T00:27:26.201Z,53.40
2018-10-03T00:29:54.767Z,53.80
2018-10-03T00:32:23.389Z,53.50
2018-10-03T00:34:52.032Z,53.40
2018-10-03T00:37:20.971Z,53.90
2018-10-03T00:39:49.694Z,53.80
2018-10-03T00:42:18.324Z,53.60
2018-10-03T00:44:46.878Z,53.60
2018-10-03T00:47:15.514Z,53.90
2018-10-03T00:49:44.050Z,53.70
2018-10-03T00:52:12.736Z,53.80
2018-10-03T00:54:41.340Z,53.50
2018-10-03T00:57:10.236Z,53.60
2018-10-03T00:59:39.020Z,53.60
2018-10-03T01:02:07.887Z,53.50
2018-10-03T01:04:36.579Z,53.50
2018-10-03T01:07:05.110Z,53.50
2018-10-03T01:09:33.653Z,53.50
2018-10-03T01:12:02.324Z,53.40
2018-10-03T01:14:31.487Z,53.80
2018-10-03T01:17:00.022Z,53.60
2018-10-03T01:19:28.656Z,53.70
2018-10-03T01:21:57.424Z,53.70
2018-10-03T01:24:25.926Z,53.50
2018-10-03T01:26:54.804Z,53.60
2018-10-03T01:29:23.457Z,53.40
2018-10-03T01:31:52.040Z,53.70
2018-10-03T01:34:20.547Z,53.80
2018-10-03T01:36:49.142Z,53.50
2018-10-03T01:39:17.699Z,54.00
2018-10-03T01:41:46.293Z,53.60
2018-10-03T01:44:14.825Z,53.70
2018-10-03T01:46:43.454Z,53.60
2018-10-03T01:49:12.014Z,53.50
2018-10-03T01:51:40.655Z,53.50
2018-10-03T01:54:09.217Z,53.50
2018-10-03T01:56:37.745Z,53.80
2018-10-03T01:59:06.316Z,54.00
2018-10-03T02:01:34.852Z,54.00
2018-10-03T02:04:03.400Z,54.20
2018-10-03T02:06:31.949Z,53.90
2018-10-03T02:09:00.515Z,54.20
2018-10-03T02:11:29.089Z,53.90
2018-10-03T02:13:57.681Z,54.10
2018-10-03T02:16:26.268Z,54.10
2018-10-03T02:18:54.831Z,54.10
2018-10-03T02:21:23.378Z,54.10
2018-10-03T02:23:51.980Z,54.00
2018-10-03T02:26:21.248Z,53.90
2018-10-03T02:28:49.796Z,53.90
2018-10-03T02:31:18.371Z,54.00
2018-10-03T02:33:46.939Z,53.90
2018-10-03T02:36:15.517Z,54.00
2018-10-03T02:38:44.081Z,53.80
2018-10-03T02:41:12.706Z,53.90
2018-10-03T02:43:41.224Z,54.50
2018-10-03T02:46:09.831Z,54.10
2018-10-03T02:48:38.355Z,53.90
2018-10-03T02:51:06.915Z,54.10
2018-10-03T02:53:35.596Z,54.10
2018-10-03T02:56:04.118Z,53.80
2018-10-03T02:58:32.670Z,53.90
2018-10-03T03:01:01.295Z,54.00
2018-10-03T03:03:29.820Z,54.30
2018-10-03T03:05:58.461Z,54.30
2018-10-03T03:08:27.071Z,54.00
2018-10-03T03:10:55.555Z,53.70
2018-10-03T03:13:24.142Z,54.00
2018-10-03T03:15:53.435Z,54.00
2018-10-03T03:18:22.052Z,54.00
2018-10-03T03:20:50.663Z,54.00
2018-10-03T03:23:19.277Z,54.20
2018-10-03T03:25:47.840Z,54.10
2018-10-03T03:28:16.404Z,54.60
2018-10-03T03:30:45.035Z,53.90
2018-10-03T03:33:13.520Z,54.00
2018-10-03T03:35:42.188Z,54.30
2018-10-03T03:38:10.697Z,54.30
2018-10-03T03:40:39.270Z,54.20
2018-10-03T03:43:07.777Z,54.20
2018-10-03T03:45:36.428Z,53.90
2018-10-03T03:48:05.036Z,54.30
2018-10-03T03:50:33.694Z,54.30
2018-10-03T03:53:02.243Z,54.30
2018-10-03T03:55:30.755Z,54.80
2018-10-03T03:57:59.277Z,54.00
2018-10-03T04:00:27.785Z,54.30
2018-10-03T04:02:56.489Z,54.40
2018-10-03T04:05:25.157Z,54.90
2018-10-03T04:07:54.016Z,54.60
2018-10-03T04:10:22.560Z,54.60
2018-10-03T04:12:51.462Z,54.60
2018-10-03T04:15:20.085Z,54.70
2018-10-03T04:17:48.622Z,54.60
2018-10-03T04:20:17.209Z,54.90
2018-10-03T04:22:45.766Z,55.00
2018-10-03T04:25:14.332Z,54.90
2018-10-03T04:27:42.916Z,55.00
2018-10-03T04:30:11.456Z,55.10
2018-10-03T04:32:40.137Z,55.00
2018-10-03T04:35:08.768Z,55.20
2018-10-03T04:37:37.327Z,55.30
2018-10-03T04:40:05.897Z,55.20
2018-10-03T04:42:34.458Z,55.50
2018-10-03T04:45:03.688Z,55.90
2018-10-03T04:47:32.364Z,56.00
2018-10-03T04:50:01.011Z,55.90
2018-10-03T04:52:29.607Z,57.00
2018-10-03T04:54:58.154Z,55.80
2018-10-03T04:57:26.711Z,56.10
2018-10-03T04:59:55.234Z,56.10
2018-10-03T05:02:23.788Z,56.00
2018-10-03T05:04:52.296Z,55.70
2018-10-03T05:07:20.844Z,55.40
2018-10-03T05:09:49.399Z,55.50
2018-10-03T05:12:18.031Z,55.40
2018-10-03T05:14:46.569Z,55.40
2018-10-03T05:17:15.137Z,55.60
2018-10-03T05:19:43.682Z,56.10
2018-10-03T05:22:12.368Z,55.40
2018-10-03T05:24:40.921Z,55.20
2018-10-03T05:27:09.483Z,55.10
2018-10-03T05:29:38.065Z,55.20
2018-10-03T05:32:06.697Z,55.90
2018-10-03T05:34:35.257Z,54.90
2018-10-03T05:37:03.824Z,55.00
2018-10-03T05:39:32.494Z,55.30
2018-10-03T05:42:01.126Z,55.30
2018-10-03T05:44:29.756Z,55.10
2018-10-03T05:46:58.402Z,55.00
2018-10-03T05:49:27.040Z,55.00
2018-10-03T05:51:55.774Z,54.80
2018-10-03T05:54:24.270Z,54.80
2018-10-03T05:56:52.936Z,54.80
2018-10-03T05:59:21.481Z,54.80
2018-10-03T06:01:50.105Z,54.80
2018-10-03T06:04:18.636Z,55.10
2018-10-03T06:06:47.161Z,54.90
2018-10-03T06:09:15.740Z,55.00
2018-10-03T06:11:44.299Z,54.90
2018-10-03T06:14:13.041Z,54.70
2018-10-03T06:16:41.574Z,55.10
2018-10-03T06:19:10.236Z,54.70
2018-10-03T06:21:38.893Z,55.10
2018-10-03T06:24:07.749Z,55.00
2018-10-03T06:26:36.347Z,55.10
2018-10-03T06:29:04.939Z,54.60
2018-10-03T06:31:33.605Z,54.90
2018-10-03T06:34:02.216Z,54.90
2018-10-03T06:36:30.772Z,55.00
2018-10-03T06:38:59.350Z,54.90
2018-10-03T06:41:27.985Z,55.00
2018-10-03T06:43:56.536Z,54.90
2018-10-03T06:46:25.095Z,55.00
2018-10-03T06:48:54.284Z,54.90
2018-10-03T06:51:23.041Z,54.90
2018-10-03T06:53:51.657Z,55.10
2018-10-03T06:56:21.020Z,55.10
2018-10-03T06:58:49.644Z,54.80
2018-10-03T07:01:18.184Z,54.80
2018-10-03T07:03:46.703Z,54.80
2018-10-03T07:06:15.385Z,54.80
2018-10-03T07:08:44.303Z,54.50
2018-10-03T07:11:13.860Z,54.70
2018-10-03T07:13:42.632Z,54.80
2018-10-03T07:16:11.297Z,54.30
2018-10-03T07:18:40.025Z,54.50
2018-10-03T07:21:09.599Z,54.40
2018-10-03T07:23:38.233Z,54.20
2018-10-03T07:26:07.235Z,54.60
2018-10-03T07:28:35.892Z,53.70
2018-10-03T07:31:05.357Z,53.10
2018-10-03T07:33:33.932Z,53.40
2018-10-03T07:36:02.627Z,53.70
2018-10-03T07:38:31.729Z,53.20
2018-10-03T07:41:03.711Z,53.50
2018-10-03T07:43:33.132Z,53.50
2018-10-03T07:46:02.327Z,53.50
2018-10-03T07:48:32.726Z,53.60
2018-10-03T07:51:01.511Z,53.40
2018-10-03T07:53:30.234Z,53.30
2018-10-03T07:55:59.520Z,53.20
2018-10-03T07:58:29.817Z,53.40
2018-10-03T08:00:58.440Z,53.20
2018-10-03T08:03:27.239Z,53.40
2018-10-03T08:05:55.977Z,53.50
2018-10-03T08:08:24.530Z,53.40
2018-10-03T08:10:53.166Z,53.50
2018-10-03T08:13:21.946Z,53.70
2018-10-03T08:15:50.638Z,53.50
2018-10-03T08:18:19.269Z,53.50
2018-10-03T08:20:47.852Z,53.40
2018-10-03T08:23:16.961Z,53.10
2018-10-03T08:25:45.611Z,52.80
2018-10-03T08:28:14.359Z,52.60
2018-10-03T08:30:42.955Z,52.80
2018-10-03T08:33:11.740Z,52.20
2018-10-03T08:35:40.276Z,52.10
2018-10-03T08:38:08.877Z,52.30
2018-10-03T08:40:37.497Z,52.40
2018-10-03T08:43:06.720Z,52.20
2018-10-03T08:45:35.352Z,52.40
2018-10-03T08:48:04.365Z,52.00
2018-10-03T08:50:32.912Z,52.00
2018-10-03T08:53:01.513Z,51.80
2018-10-03T08:55:30.088Z,51.90
2018-10-03T08:57:58.664Z,52.00
2018-10-03T09:00:27.310Z,51.70
2018-10-03T09:02:56.006Z,51.90
2018-10-03T09:05:24.574Z,51.30
2018-10-03T09:07:53.489Z,50.80
2018-10-03T09:10:22.098Z,50.40
2018-10-03T09:12:52.072Z,50.30
2018-10-03T09:15:20.628Z,50.50
2018-10-03T09:17:49.264Z,50.60
2018-10-03T09:20:17.776Z,50.20
2018-10-03T09:22:46.645Z,49.90
2018-10-03T09:25:15.339Z,49.30
2018-10-03T09:27:44.916Z,49.10
2018-10-03T09:30:13.502Z,48.90
2018-10-03T09:32:42.225Z,49.00
2018-10-03T09:35:10.848Z,47.90
2018-10-03T09:37:39.438Z,47.90
2018-10-03T09:40:08.176Z,48.30
2018-10-03T09:42:36.836Z,47.90
2018-10-03T09:45:05.796Z,48.20
2018-10-03T09:47:34.378Z,48.00
2018-10-03T09:50:03.050Z,48.10
2018-10-03T09:52:31.653Z,48.10
2018-10-03T09:55:00.233Z,47.40
2018-10-03T09:57:28.781Z,47.10
2018-10-03T09:59:57.507Z,47.30
2018-10-03T10:02:26.553Z,47.00
2018-10-03T10:04:55.099Z,46.20
2018-10-03T10:07:23.815Z,46.00
2018-10-03T10:09:52.352Z,45.80
2018-10-03T10:12:20.953Z,46.00
2018-10-03T10:14:49.504Z,45.90
2018-10-03T10:17:18.080Z,46.20
2018-10-03T10:19:46.701Z,46.00
2018-10-03T10:22:16.416Z,45.90
2018-10-03T10:24:44.978Z,45.60
2018-10-03T10:27:13.919Z,45.60
2018-10-03T10:29:42.600Z,45.40
2018-10-03T10:32:11.260Z,45.30
2018-10-03T10:34:39.872Z,45.10
2018-10-03T10:37:08.581Z,44.80
2018-10-03T10:39:37.440Z,44.90
2018-10-03T10:42:06.245Z,44.40
2018-10-03T10:44:34.830Z,43.90
2018-10-03T10:47:03.413Z,44.10
2018-10-03T10:49:32.232Z,44.30
2018-10-03T10:52:01.049Z,45.10
2018-10-03T10:54:29.714Z,44.00
2018-10-03T10:56:58.357Z,43.70
2018-10-03T10:59:27.022Z,43.50
2018-10-03T11:01:55.588Z,44.40
2018-10-03T11:04:24.412Z,44.60
2018-10-03T11:06:53.164Z,44.30
2018-10-03T11:09:21.952Z,44.30
2018-10-03T11:11:50.573Z,44.40
2018-10-03T11:14:19.176Z,44.90
2018-10-03T11:16:47.867Z,45.30
2018-10-03T11:19:16.518Z,45.60
2018-10-03T11:21:45.135Z,45.80
2018-10-03T11:24:13.895Z,45.60
2018-10-03T11:26:43.237Z,45.40
2018-10-03T11:29:11.809Z,45.50
2018-10-03T11:31:40.370Z,46.00
2018-10-03T11:34:09.589Z,46.00
2018-10-03T11:36:39.050Z,45.90
2018-10-03T11:39:09.266Z,45.60
2018-10-03T11:41:37.901Z,45.10
2018-10-03T11:44:06.661Z,45.40
2018-10-03T11:46:35.236Z,45.10
2018-10-03T11:49:03.894Z,45.10
2018-10-03T11:51:32.482Z,45.40
2018-10-03T11:54:01.176Z,45.00
2018-10-03T11:56:29.943Z,44.80
2018-10-03T11:58:58.710Z,44.00
2018-10-03T12:01:27.368Z,43.90
2018-10-03T12:03:55.928Z,43.60
2018-10-03T12:06:24.579Z,44.00
2018-10-03T12:08:53.265Z,43.80
2018-10-03T12:11:22.065Z,43.20
2018-10-03T12:13:50.731Z,42.40
2018-10-03T12:16:19.293Z,42.20
2018-10-03T12:18:47.887Z,42.50
2018-10-03T12:21:16.533Z,42.30
2018-10-03T12:23:45.080Z,42.40
2018-10-03T12:26:13.733Z,42.10
2018-10-03T12:28:42.323Z,42.00
2018-10-03T12:31:10.875Z,42.10
2018-10-03T12:33:40.103Z,41.40
2018-10-03T12:36:08.916Z,41.50
2018-10-03T12:38:37.559Z,41.70
2018-10-03T12:41:06.155Z,41.60
2018-10-03T12:43:34.889Z,41.50
2018-10-03T12:46:03.781Z,40.90
2018-10-03T12:48:32.514Z,41.10
2018-10-03T12:51:01.122Z,40.90
2018-10-03T12:53:30.179Z,40.80
2018-10-03T12:55:58.804Z,40.80
2018-10-03T12:58:27.414Z,40.30
2018-10-03T13:00:56.018Z,40.90
2018-10-03T13:03:24.789Z,40.80
2018-10-03T13:05:53.419Z,41.20
2018-10-03T13:08:22.091Z,40.80
2018-10-03T13:10:50.678Z,40.80
2018-10-03T13:13:19.320Z,40.20
2018-10-03T13:15:48.544Z,40.50
2018-10-03T13:18:17.084Z,40.10
2018-10-03T13:20:45.699Z,40.10
2018-10-03T13:23:14.487Z,40.40
2018-10-03T13:25:43.105Z,40.20
2018-10-03T13:28:11.669Z,40.10
2018-10-03T13:30:40.651Z,40.00
2018-10-03T13:33:09.333Z,39.50
2018-10-03T13:35:38.079Z,39.40
2018-10-03T13:38:06.875Z,39.30
2018-10-03T13:40:35.455Z,39.20
2018-10-03T13:43:04.237Z,39.30
2018-10-03T13:45:32.829Z,38.80
2018-10-03T13:48:01.533Z,38.80
2018-10-03T13:50:30.159Z,38.60
2018-10-03T13:52:58.846Z,38.10
2018-10-03T13:55:27.483Z,38.10
2018-10-03T13:57:56.061Z,37.60
2018-10-03T14:00:24.622Z,38.40
2018-10-03T14:02:53.363Z,37.60
2018-10-03T14:05:22.037Z,37.20
2018-10-03T14:07:51.291Z,37.40
2018-10-03T14:10:19.983Z,37.10
2018-10-03T14:12:48.800Z,37.10
2018-10-03T14:15:17.366Z,36.60
2018-10-03T14:17:46.097Z,36.80
2018-10-03T14:20:14.801Z,36.90
2018-10-03T14:22:43.420Z,36.50
2018-10-03T14:25:11.977Z,36.40
2018-10-03T14:27:40.801Z,36.10
2018-10-03T14:30:10.120Z,35.90
2018-10-03T14:32:38.766Z,35.60
2018-10-03T14:35:07.441Z,35.80
2018-10-03T14:37:36.016Z,35.70
2018-10-03T14:40:04.983Z,35.70
2018-10-03T14:42:33.647Z,35.60
2018-10-03T14:45:02.260Z,35.50
2018-10-03T14:47:30.872Z,35.60
2018-10-03T14:49:59.440Z,35.90
2018-10-03T14:52:28.022Z,36.00
2018-10-03T14:54:56.664Z,36.30
2018-10-03T14:57:25.562Z,36.20
2018-10-03T14:59:54.145Z,36.20
2018-10-03T15:02:22.732Z,36.50
2018-10-03T15:04:51.416Z,36.00
2018-10-03T15:07:20.010Z,36.30
2018-10-03T15:09:49.183Z,36.60
2018-10-03T15:12:17.755Z,36.40
2018-10-03T15:14:46.354Z,37.00
2018-10-03T15:17:14.937Z,36.30
2018-10-03T15:19:44.582Z,37.40
2018-10-03T15:22:13.333Z,37.20
2018-10-03T15:24:41.959Z,37.30
2018-10-03T15:27:10.510Z,37.70
2018-10-03T15:29:39.095Z,37.80
2018-10-03T15:32:07.821Z,38.30
2018-10-03T15:34:36.615Z,37.90
2018-10-03T15:37:06.151Z,37.40
2018-10-03T15:39:35.327Z,37.90
2018-10-03T15:42:04.066Z,38.00
2018-10-03T15:44:33.865Z,38.00
2018-10-03T15:47:02.765Z,38.00
2018-10-03T15:49:31.404Z,37.90
2018-10-03T15:52:00.072Z,37.90
2018-10-03T15:54:28.719Z,38.00
2018-10-03T15:56:57.340Z,38.10
2018-10-03T15:59:25.971Z,38.10
2018-10-03T16:01:54.701Z,38.30
2018-10-03T16:04:23.444Z,38.00
2018-10-03T16:06:52.191Z,38.30
2018-10-03T16:09:20.726Z,38.40
2018-10-03T16:11:49.325Z,38.30
2018-10-03T16:14:17.870Z,38.50
2018-10-03T16:16:46.510Z,38.20
2018-10-03T16:19:15.043Z,38.50
2018-10-03T16:21:44.267Z,38.20
2018-10-03T16:24:13.078Z,38.00
2018-10-03T16:26:41.819Z,38.10
2018-10-03T16:29:10.424Z,38.20
2018-10-03T16:31:39.130Z,38.20
2018-10-03T16:34:08.699Z,38.10
2018-10-03T16:36:37.944Z,38.20
2018-10-03T16:39:08.511Z,38.60
2018-10-03T16:41:37.099Z,38.50
2018-10-03T16:44:05.851Z,38.60
2018-10-03T16:46:34.463Z,38.40
2018-10-03T16:49:03.025Z,38.40
2018-10-03T16:51:31.709Z,39.00
2018-10-03T16:54:00.620Z,38.40
2018-10-03T16:56:29.761Z,38.20
2018-10-03T16:58:58.369Z,38.40
2018-10-03T17:01:27.013Z,38.40
2018-10-03T17:03:55.772Z,38.50
2018-10-03T17:06:24.340Z,38.80
2018-10-03T17:08:53.004Z,39.00
2018-10-03T17:11:21.770Z,39.40
2018-10-03T17:14:39.843Z,39.80
2018-10-03T17:17:09.307Z,39.90
2018-10-03T17:19:38.311Z,40.10
2018-10-03T17:22:07.261Z,40.10
2018-10-03T17:24:37.157Z,40.50
2018-10-03T17:27:05.820Z,40.70
2018-10-03T17:29:34.501Z,40.70
2018-10-03T17:32:03.158Z,40.70
2018-10-03T17:34:31.865Z,40.60
2018-10-03T17:37:00.580Z,40.80
2018-10-03T17:39:29.463Z,40.70
2018-10-03T17:41:58.412Z,40.90
2018-10-03T17:44:27.239Z,41.10
2018-10-03T17:46:57.124Z,41.40
2018-10-03T17:49:25.744Z,41.60
2018-10-03T17:51:54.296Z,41.50
2018-10-03T17:54:22.854Z,41.60
2018-10-03T17:56:52.481Z,41.50
2018-10-03T17:59:21.041Z,42.00
2018-10-03T18:01:52.424Z,41.80
2018-10-03T18:04:21.018Z,41.90
2018-10-03T18:06:49.780Z,42.90
2018-10-03T18:09:18.532Z,42.50
2018-10-03T18:11:47.024Z,42.40
2018-10-03T18:14:16.636Z,42.70
2018-10-03T18:16:45.190Z,42.60
2018-10-03T18:19:13.774Z,42.90
2018-10-03T18:21:42.523Z,43.00
2018-10-03T18:24:11.265Z,42.90
2018-10-03T18:26:39.826Z,43.10
2018-10-03T18:29:08.377Z,43.30
2018-10-03T18:31:37.061Z,43.30
2018-10-03T18:34:05.816Z,43.70
2018-10-03T18:36:35.567Z,43.80
2018-10-03T18:39:05.629Z,43.80
2018-10-03T18:41:34.585Z,43.70
2018-10-03T18:44:03.478Z,43.60
2018-10-03T18:46:32.472Z,43.70
2018-10-03T18:49:01.378Z,43.80
2018-10-03T18:51:30.375Z,43.50
2018-10-03T18:54:00.291Z,43.70
2018-10-03T18:56:29.430Z,43.70
2018-10-03T18:58:58.380Z,43.70
2018-10-03T19:01:27.584Z,43.80
2018-10-03T19:03:56.551Z,43.70
2018-10-03T19:06:25.477Z,43.60
2018-10-03T19:08:54.556Z,43.70
2018-10-03T19:11:23.558Z,43.70
2018-10-03T19:13:52.771Z,43.60
2018-10-03T19:16:21.705Z,43.70
2018-10-03T19:18:50.664Z,43.60
2018-10-03T19:21:19.668Z,44.00
2018-10-03T19:23:49.376Z,44.10
2018-10-03T19:26:18.435Z,44.10
2018-10-03T19:28:47.471Z,44.20
2018-10-03T19:31:16.479Z,44.50
2018-10-03T19:33:45.463Z,44.40
2018-10-03T19:36:14.505Z,44.80
2018-10-03T19:38:44.384Z,44.50
2018-10-03T19:41:13.281Z,44.70
2018-10-03T19:43:42.266Z,44.70
2018-10-03T19:46:11.445Z,44.50
2018-10-03T19:48:40.081Z,44.60
2018-10-03T19:51:08.784Z,44.50
2018-10-03T19:53:37.965Z,44.50
2018-10-03T19:56:06.668Z,44.50
2018-10-03T19:58:35.226Z,44.60
2018-10-03T20:01:03.983Z,44.70
2018-10-03T20:03:32.737Z,44.90
2018-10-03T20:06:01.368Z,44.90
2018-10-03T20:08:29.939Z,45.20
2018-10-03T20:10:58.607Z,45.00
2018-10-03T20:13:27.225Z,44.90
2018-10-03T20:15:55.948Z,45.00
2018-10-03T20:18:24.561Z,45.10
2018-10-03T20:20:53.239Z,45.40
2018-10-03T20:23:22.214Z,45.60
2018-10-03T20:25:51.005Z,45.30
2018-10-03T20:28:19.601Z,45.40
2018-10-03T20:30:48.300Z,45.40
2018-10-03T20:33:16.944Z,45.50
2018-10-03T20:35:45.573Z,45.40
2018-10-03T20:38:14.182Z,45.60
2018-10-03T20:40:42.912Z,45.90
2018-10-03T20:43:11.697Z,45.80
2018-10-03T20:45:40.668Z,45.70
2018-10-03T20:48:09.412Z,45.70
2018-10-03T20:50:38.633Z,45.80
2018-10-03T20:53:07.236Z,45.90
2018-10-03T20:55:35.842Z,45.90
2018-10-03T20:58:04.434Z,45.90
2018-10-03T21:00:33.959Z,45.90
2018-10-03T21:03:02.662Z,46.00
2018-10-03T21:05:31.272Z,45.90
2018-10-03T21:07:59.865Z,45.90
2018-10-03T21:10:29.248Z,46.10
2018-10-03T21:12:57.990Z,46.10
2018-10-03T21:15:26.741Z,45.90
2018-10-03T21:17:55.316Z,46.10
2018-10-03T21:20:24.515Z,46.30
2018-10-03T21:22:53.340Z,46.20
2018-10-03T21:25:21.921Z,46.20
2018-10-03T21:27:50.565Z,46.40
2018-10-03T21:30:19.077Z,45.90
2018-10-03T21:32:47.813Z,46.20
2018-10-03T21:35:16.375Z,45.90
2018-10-03T21:37:44.947Z,46.00
2018-10-03T21:40:13.549Z,45.80
2018-10-03T21:42:42.252Z,45.80
2018-10-03T21:45:11.558Z,45.90
2018-10-03T21:47:40.277Z,45.80
2018-10-03T21:50:08.935Z,46.10
2018-10-03T21:52:37.495Z,46.00
2018-10-03T21:55:06.051Z,46.10
2018-10-03T21:57:34.678Z,46.20
2018-10-03T22:00:04.039Z,46.30
2018-10-03T22:02:32.610Z,47.20
2018-10-03T22:05:01.396Z,46.60
2018-10-03T22:07:29.928Z,46.70
2018-10-03T22:09:58.496Z,46.60
2018-10-03T22:12:27.168Z,46.50
2018-10-03T22:14:55.842Z,46.30
2018-10-03T22:17:25.572Z,46.70
2018-10-03T22:19:55.801Z,46.70
2018-10-03T22:22:24.567Z,46.60
2018-10-03T22:24:53.116Z,46.90
2018-10-03T22:27:21.709Z,46.80
2018-10-03T22:29:51.087Z,47.70
2018-10-03T22:32:19.724Z,47.20
2018-10-03T22:34:48.385Z,47.20
2018-10-03T22:37:16.946Z,47.30
2018-10-03T22:39:45.478Z,47.30
2018-10-03T22:42:14.048Z,47.10
2018-10-03T22:44:42.613Z,47.50
2018-10-03T22:47:11.195Z,47.60
2018-10-03T22:49:39.728Z,47.40
2018-10-03T22:52:08.457Z,47.70
2018-10-03T22:54:37.004Z,47.40
2018-10-03T22:57:05.756Z,47.30
2018-10-03T22:59:34.401Z,47.70
2018-10-03T23:02:03.009Z,47.50
2018-10-03T23:04:31.604Z,47.50
2018-10-03T23:07:00.141Z,47.80
2018-10-03T23:09:28.675Z,47.80
2018-10-03T23:11:57.270Z,47.90
2018-10-03T23:14:25.830Z,47.90
2018-10-03T23:16:54.711Z,47.90
2018-10-03T23:19:23.236Z,47.80
2018-10-03T23:21:51.766Z,47.70
2018-10-03T23:24:20.402Z,47.90
2018-10-03T23:26:48.978Z,48.00
2018-10-03T23:29:17.618Z,48.00
2018-10-03T23:31:46.207Z,48.20
2018-10-03T23:34:14.801Z,48.30
2018-10-03T23:36:44.261Z,48.20
2018-10-03T23:39:13.199Z,48.40
2018-10-03T23:41:42.139Z,48.30
2018-10-03T23:44:11.134Z,48.50
2018-10-03T23:46:40.287Z,48.40
2018-10-03T23:49:08.836Z,48.60
2018-10-03T23:51:37.382Z,48.60
2018-10-03T23:54:06.060Z,48.70
2018-10-03T23:56:34.784Z,48.80
2018-10-03T23:59:03.500Z,48.70
